Time;durP1;ratioP1;P1;durP2;ratioP2;P2;SDS_P1;SDS_P2;PMS_P1;PMS_P2;Temp;Humidity;BMP_temperature;BMP_pressure;BME280_temperature;BME280_humidity;BME280_pressure;Samples;Min_cycle;Max_cycle;Signal;HPM_P1;HPM_P2
2023/05/09 00:02:00;;;;;;;288.58;157.57;;;;;;;;;;5058591;28;20141;-75
2023/05/09 00:04:26;;;;;;;274.20;154.27;;;;;;;;;;5055651;28;20495;-74
2023/05/09 00:06:53;;;;;;;304.15;164.57;;;;;;;;;;5055954;28;20049;-66
2023/05/09 00:09:20;;;;;;;348.08;170.82;;;;;;;;;;5056350;28;20036;-68
2023/05/09 00:11:46;;;;;;;345.33;178.75;;;;;;;;;;5055535;28;20049;-66
2023/05/09 00:14:13;;;;;;;407.23;188.18;;;;;;;;;;5058541;28;20398;-70
2023/05/09 00:16:39;;;;;;;498.25;201.32;;;;;;;;;;5059514;28;20037;-70
2023/05/09 00:19:06;;;;;;;312.38;164.27;;;;;;;;;;5058424;28;20044;-68
2023/05/09 00:21:33;;;;;;;298.85;164.75;;;;;;;;;;5059193;28;20048;-71
2023/05/09 00:24:00;;;;;;;345.55;164.88;;;;;;;;;;5061302;27;20061;-70
2023/05/09 00:26:27;;;;;;;273.85;154.88;;;;;;;;;;5055075;28;20049;-68
2023/05/09 00:28:53;;;;;;;277.08;157.40;;;;;;;;;;5058989;28;20045;-70
2023/05/09 00:31:20;;;;;;;304.85;157.57;;;;;;;;;;5055547;28;20064;-66
2023/05/09 00:33:47;;;;;;;313.33;162.48;;;;;;;;;;5057435;28;20064;-66
2023/05/09 00:36:13;;;;;;;318.95;164.10;;;;;;;;;;5057994;28;20413;-68
2023/05/09 00:38:42;;;;;;;360.73;171.73;;;;;;;;;;5053673;28;20037;-72
2023/05/09 00:41:09;;;;;;;320.67;167.82;;;;;;;;;;5053223;28;20390;-71
2023/05/09 00:43:36;;;;;;;286.88;160.63;;;;;;;;;;5051631;28;20048;-71
2023/05/09 00:46:03;;;;;;;294.92;155.85;;;;;;;;;;5060155;28;20037;-69
2023/05/09 00:48:29;;;;;;;238.88;142.75;;;;;;;;;;5056599;28;20538;-69
2023/05/09 00:50:56;;;;;;;249.73;143.55;;;;;;;;;;5057301;28;20128;-68
2023/05/09 00:53:23;;;;;;;299.90;147.55;;;;;;;;;;5054748;28;20509;-69
2023/05/09 00:55:50;;;;;;;253.73;148.20;;;;;;;;;;5066351;28;20067;-68
2023/05/09 00:58:18;;;;;;;265.90;150.13;;;;;;;;;;5049272;28;20045;-66
2023/05/09 01:00:44;;;;;;;439.13;191.38;;;;;;;;;;5048864;28;20119;-71
2023/05/09 01:03:11;;;;;;;305.00;153.30;;;;;;;;;;5053295;28;20041;-71
2023/05/09 01:05:51;;;;;;;249.52;143.30;;;;;;;;;;5057978;28;20234;-67
2023/05/09 01:08:41;;;;;;;271.75;144.82;;;;;;;;;;5038906;27;20132;-74
2023/05/09 01:11:21;;;;;;;238.00;139.65;;;;;;;;;;5051931;27;20037;-74
2023/05/09 01:14:06;;;;;;;233.70;133.70;;;;;;;;;;5058389;28;20045;-67
2023/05/09 01:16:48;;;;;;;307.13;148.40;;;;;;;;;;5067664;27;20478;-68
2023/05/09 01:19:29;;;;;;;281.08;153.40;;;;;;;;;;5041337;27;20045;-69
2023/05/09 01:21:58;;;;;;;343.50;157.35;;;;;;;;;;5049103;28;20033;-70
2023/05/09 01:24:43;;;;;;;242.77;140.40;;;;;;;;;;5052913;28;20049;-68
2023/05/09 01:27:29;;;;;;;293.00;141.43;;;;;;;;;;5072056;28;20049;-68
2023/05/09 01:29:56;;;;;;;172.23;107.38;;;;;;;;;;5053763;28;20045;-67
2023/05/09 01:32:26;;;;;;;242.35;125.40;;;;;;;;;;5056645;28;20505;-66
2023/05/09 01:34:54;;;;;;;258.67;135.52;;;;;;;;;;5057079;27;20124;-66
2023/05/09 01:37:23;;;;;;;173.65;108.40;;;;;;;;;;5057405;28;20045;-68
2023/05/09 01:39:52;;;;;;;237.48;120.47;;;;;;;;;;5052744;28;20558;-68
2023/05/09 01:42:19;;;;;;;199.43;121.35;;;;;;;;;;5054073;28;20048;-66
2023/05/09 01:44:47;;;;;;;248.05;138.35;;;;;;;;;;5036902;28;20051;-72
2023/05/09 01:47:15;;;;;;;272.00;146.52;;;;;;;;;;5055477;28;20040;-70
2023/05/09 01:49:42;;;;;;;237.38;143.23;;;;;;;;;;5057062;28;20171;-67
2023/05/09 01:52:11;;;;;;;243.32;136.63;;;;;;;;;;5054506;28;20127;-73
2023/05/09 01:54:39;;;;;;;258.10;137.65;;;;;;;;;;5056514;28;20403;-65
2023/05/09 01:57:07;;;;;;;254.88;136.35;;;;;;;;;;5057742;28;20071;-67
2023/05/09 01:59:34;;;;;;;231.85;132.65;;;;;;;;;;5038417;28;20089;-73
2023/05/09 02:02:02;;;;;;;205.18;126.32;;;;;;;;;;5066605;22;20047;-71
2023/05/09 02:04:29;;;;;;;241.27;133.35;;;;;;;;;;5100072;28;20694;-69
2023/05/09 02:06:56;;;;;;;252.05;139.73;;;;;;;;;;5099870;28;20398;-73
2023/05/09 02:09:23;;;;;;;287.92;148.43;;;;;;;;;;5100358;28;20084;-72
2023/05/09 02:11:49;;;;;;;318.95;155.20;;;;;;;;;;5101156;28;20567;-72
2023/05/09 02:14:16;;;;;;;326.38;153.98;;;;;;;;;;5097786;28;20040;-73
2023/05/09 02:16:43;;;;;;;335.23;155.60;;;;;;;;;;5095397;28;20139;-71
2023/05/09 02:19:10;;;;;;;322.60;151.90;;;;;;;;;;5096811;28;20044;-72
2023/05/09 02:21:36;;;;;;;254.13;139.07;;;;;;;;;;5097252;28;20039;-69
2023/05/09 02:24:03;;;;;;;281.63;144.25;;;;;;;;;;5097829;28;20107;-72
2023/05/09 02:26:30;;;;;;;289.65;142.02;;;;;;;;;;5099036;28;20544;-72
2023/05/09 02:28:57;;;;;;;296.95;148.15;;;;;;;;;;5100435;28;20504;-72
2023/05/09 02:31:24;;;;;;;315.27;152.48;;;;;;;;;;5099952;28;20581;-76
2023/05/09 02:33:52;;;;;;;338.05;156.13;;;;;;;;;;5098751;28;20042;-70
2023/05/09 02:36:19;;;;;;;338.60;155.88;;;;;;;;;;5099879;28;20173;-69
2023/05/09 02:38:46;;;;;;;307.23;147.98;;;;;;;;;;5099703;28;20044;-71
2023/05/09 02:41:13;;;;;;;292.88;143.30;;;;;;;;;;5095041;28;20040;-71
2023/05/09 02:43:39;;;;;;;230.50;135.48;;;;;;;;;;5096994;28;20584;-72
2023/05/09 02:46:07;;;;;;;277.35;142.02;;;;;;;;;;5096443;28;20040;-71
2023/05/09 02:48:33;;;;;;;299.63;140.98;;;;;;;;;;5094108;28;20055;-69
2023/05/09 02:51:00;;;;;;;237.50;133.68;;;;;;;;;;5100294;28;20055;-74
2023/05/09 02:53:27;;;;;;;308.08;143.27;;;;;;;;;;5098137;28;20499;-74
2023/05/09 02:55:53;;;;;;;306.60;144.13;;;;;;;;;;5100696;28;20047;-70
2023/05/09 02:58:20;;;;;;;300.80;146.52;;;;;;;;;;5099137;28;20139;-69
2023/05/09 03:00:46;;;;;;;308.17;146.05;;;;;;;;;;5100424;28;20047;-73
2023/05/09 03:03:13;;;;;;;277.83;140.80;;;;;;;;;;5098829;28;20052;-74
2023/05/09 03:05:40;;;;;;;264.50;138.77;;;;;;;;;;5116080;27;20063;-69
2023/05/09 03:08:06;;;;;;;285.70;143.25;;;;;;;;;;5102989;28;20035;-68
2023/05/09 03:10:33;;;;;;;267.90;143.82;;;;;;;;;;5100253;28;20063;-72
2023/05/09 03:13:01;;;;;;;260.10;142.38;;;;;;;;;;5101706;28;20120;-69
2023/05/09 03:15:27;;;;;;;328.38;151.82;;;;;;;;;;5075707;28;20481;-70
2023/05/09 03:17:57;;;;;;;306.33;154.43;;;;;;;;;;5100343;28;20440;-71
2023/05/09 03:20:24;;;;;;;372.98;166.93;;;;;;;;;;5101730;28;20516;-76
2023/05/09 03:22:51;;;;;;;351.70;161.02;;;;;;;;;;5102864;28;20047;-69
2023/05/09 03:25:18;;;;;;;362.25;158.90;;;;;;;;;;5102103;28;20039;-74
2023/05/09 03:27:44;;;;;;;359.73;165.23;;;;;;;;;;5101655;28;20059;-71
2023/05/09 03:30:13;;;;;;;404.55;173.10;;;;;;;;;;5101765;28;20071;-72
2023/05/09 03:32:41;;;;;;;333.80;161.32;;;;;;;;;;5082575;28;20512;-74
2023/05/09 03:35:08;;;;;;;315.17;157.88;;;;;;;;;;5100323;28;20717;-72
2023/05/09 03:37:35;;;;;;;335.45;156.00;;;;;;;;;;5101416;28;20502;-69
2023/05/09 03:40:04;;;;;;;337.98;158.93;;;;;;;;;;5100188;28;20127;-73
2023/05/09 03:42:34;;;;;;;276.70;152.43;;;;;;;;;;5100688;28;20738;-71
2023/05/09 03:45:02;;;;;;;278.10;154.73;;;;;;;;;;5100799;28;20747;-70
2023/05/09 03:47:29;;;;;;;279.90;149.60;;;;;;;;;;5100937;28;20040;-71
2023/05/09 03:49:56;;;;;;;265.83;145.60;;;;;;;;;;5101468;28;20055;-71
2023/05/09 03:52:22;;;;;;;291.20;151.57;;;;;;;;;;5103438;28;20052;-74
2023/05/09 03:54:49;;;;;;;311.48;160.70;;;;;;;;;;5101413;28;20051;-70
2023/05/09 03:57:16;;;;;;;288.23;153.07;;;;;;;;;;5100936;28;20501;-70
2023/05/09 03:59:44;;;;;;;250.32;148.57;;;;;;;;;;5099076;28;20055;-72
2023/05/09 04:02:13;;;;;;;277.92;153.63;;;;;;;;;;5098581;28;20109;-72
2023/05/09 04:04:40;;;;;;;274.52;157.82;;;;;;;;;;5100521;28;20044;-75
2023/05/09 04:07:06;;;;;;;271.17;155.35;;;;;;;;;;5099272;28;20032;-69
2023/05/09 04:09:33;;;;;;;285.77;166.30;;;;;;;;;;5100124;28;20046;-69
2023/05/09 04:12:00;;;;;;;327.40;173.00;;;;;;;;;;5100025;28;20071;-72
2023/05/09 04:14:27;;;;;;;301.90;169.57;;;;;;;;;;5098620;28;20056;-71
2023/05/09 04:16:54;;;;;;;263.45;163.77;;;;;;;;;;5102649;28;20064;-71
2023/05/09 04:19:20;;;;;;;256.42;184.60;;;;;;;;;;5099716;28;20408;-70
2023/05/09 04:21:47;;;;;;;346.67;229.43;;;;;;;;;;5101951;28;20036;-70
2023/05/09 04:24:14;;;;;;;233.15;189.27;;;;;;;;;;5101694;28;20114;-73
2023/05/09 04:26:42;;;;;;;170.80;151.13;;;;;;;;;;5110991;27;20044;-72
2023/05/09 04:29:12;;;;;;;109.72;92.25;;;;;;;;;;5097679;28;20067;-72
2023/05/09 04:31:40;;;;;;;132.63;71.38;;;;;;;;;;5099408;28;20052;-73
2023/05/09 04:34:09;;;;;;;162.55;76.47;;;;;;;;;;5098898;28;20508;-71
2023/05/09 04:36:37;;;;;;;94.18;60.05;;;;;;;;;;5096263;28;20044;-72
2023/05/09 04:39:04;;;;;;;128.02;69.70;;;;;;;;;;5096317;28;20051;-74
2023/05/09 04:41:33;;;;;;;123.20;57.55;;;;;;;;;;5098141;28;20051;-69
2023/05/09 04:44:00;;;;;;;139.57;85.35;;;;;;;;;;5101889;28;20511;-72
2023/05/09 04:46:28;;;;;;;142.18;126.72;;;;;;;;;;5103524;28;20047;-70
2023/05/09 04:48:54;;;;;;;158.57;106.50;;;;;;;;;;5101714;28;20632;-70
2023/05/09 04:51:21;;;;;;;124.40;95.15;;;;;;;;;;5101250;27;20063;-70
2023/05/09 04:53:49;;;;;;;85.20;68.07;;;;;;;;;;5101664;28;20922;-68
2023/05/09 04:56:18;;;;;;;172.02;59.78;;;;;;;;;;5097618;28;20067;-69
2023/05/09 04:58:46;;;;;;;113.85;50.55;;;;;;;;;;5100019;28;20063;-69
2023/05/09 05:01:13;;;;;;;191.25;174.13;;;;;;;;;;5095942;28;20052;-69
2023/05/09 05:03:40;;;;;;;252.43;227.35;;;;;;;;;;5100423;28;20040;-71
2023/05/09 05:06:07;;;;;;;206.75;184.20;;;;;;;;;;5096045;28;20050;-69
2023/05/09 05:08:35;;;;;;;210.57;191.13;;;;;;;;;;5098931;28;20497;-71
2023/05/09 05:11:01;;;;;;;208.15;186.95;;;;;;;;;;5099542;28;20733;-69
2023/05/09 05:13:28;;;;;;;203.27;187.25;;;;;;;;;;5099002;28;20052;-69
2023/05/09 05:15:58;;;;;;;218.60;198.90;;;;;;;;;;5096874;28;20036;-68
2023/05/09 05:18:25;;;;;;;276.02;248.48;;;;;;;;;;5100209;28;20047;-71
2023/05/09 05:20:52;;;;;;;254.38;229.80;;;;;;;;;;5082099;28;20084;-68
2023/05/09 05:23:19;;;;;;;172.60;156.18;;;;;;;;;;5097443;28;20055;-68
2023/05/09 05:25:47;;;;;;;201.85;180.02;;;;;;;;;;5099409;28;20046;-68
2023/05/09 05:28:14;;;;;;;201.65;181.38;;;;;;;;;;5097225;28;20040;-68
2023/05/09 05:30:41;;;;;;;206.73;187.82;;;;;;;;;;5098432;28;20040;-69
2023/05/09 05:33:08;;;;;;;213.60;180.02;;;;;;;;;;5099045;28;20507;-69
2023/05/09 05:35:34;;;;;;;158.98;143.00;;;;;;;;;;5100590;28;20056;-68
2023/05/09 05:38:01;;;;;;;152.20;118.50;;;;;;;;;;5099313;28;20136;-68
2023/05/09 05:40:28;;;;;;;168.68;148.82;;;;;;;;;;5081774;28;20044;-67
2023/05/09 05:42:56;;;;;;;156.60;142.45;;;;;;;;;;5099830;28;20054;-67
2023/05/09 05:45:24;;;;;;;190.40;172.35;;;;;;;;;;5099438;28;23509;-69
2023/05/09 05:47:54;;;;;;;272.88;241.55;;;;;;;;;;5100514;28;20047;-68
2023/05/09 05:50:22;;;;;;;269.55;222.93;;;;;;;;;;5095929;28;20506;-71
2023/05/09 05:52:49;;;;;;;254.23;229.38;;;;;;;;;;5097534;28;20046;-69
2023/05/09 05:55:17;;;;;;;298.35;267.83;;;;;;;;;;5096109;28;20122;-67
2023/05/09 05:57:44;;;;;;;267.98;244.15;;;;;;;;;;5099114;28;20067;-67
2023/05/09 06:00:14;;;;;;;292.90;264.13;;;;;;;;;;5099155;28;20071;-69
2023/05/09 06:02:53;;;;;;;285.80;258.95;;;;;;;;;;5098212;28;20055;-68
2023/05/09 06:05:43;;;;;;;276.88;250.85;;;;;;;;;;5104003;27;20519;-73
2023/05/09 06:08:10;;;;;;;224.18;205.98;;;;;;;;;;5072305;27;20057;-68
2023/05/09 06:10:37;;;;;;;208.85;191.38;;;;;;;;;;5105357;27;20051;-70
2023/05/09 06:13:03;;;;;;;241.30;206.98;;;;;;;;;;5105413;27;20039;-69
2023/05/09 06:15:30;;;;;;;209.95;190.23;;;;;;;;;;5102772;27;20039;-68
2023/05/09 06:17:58;;;;;;;178.60;161.68;;;;;;;;;;5097246;27;20047;-68
2023/05/09 06:20:26;;;;;;;206.77;158.80;;;;;;;;;;5096983;28;20079;-67
2023/05/09 06:22:52;;;;;;;132.25;119.15;;;;;;;;;;5121115;27;20058;-68
2023/05/09 06:25:19;;;;;;;140.13;103.90;;;;;;;;;;5117537;27;20039;-69
2023/05/09 06:27:45;;;;;;;150.60;133.88;;;;;;;;;;5114847;27;20043;-68
2023/05/09 06:30:12;;;;;;;150.95;123.65;;;;;;;;;;5116097;28;20040;-68
2023/05/09 06:32:51;;;;;;;136.23;120.53;;;;;;;;;;5117487;28;20512;-67
2023/05/09 06:35:18;;;;;;;216.35;141.88;;;;;;;;;;5097569;28;20518;-67
2023/05/09 06:37:44;;;;;;;140.18;123.78;;;;;;;;;;5105570;28;20523;-70
2023/05/09 06:40:14;;;;;;;132.52;118.63;;;;;;;;;;5117019;28;20039;-67
2023/05/09 06:42:40;;;;;;;191.65;124.63;;;;;;;;;;5120504;28;20047;-67
2023/05/09 06:45:07;;;;;;;143.25;128.82;;;;;;;;;;5084608;28;20142;-65
2023/05/09 06:47:34;;;;;;;126.43;116.60;;;;;;;;;;5121274;28;20052;-66
2023/05/09 06:50:00;;;;;;;150.98;139.02;;;;;;;;;;5122105;28;20123;-65
2023/05/09 06:52:27;;;;;;;157.88;145.30;;;;;;;;;;5121079;28;20040;-65
2023/05/09 06:54:54;;;;;;;176.90;162.02;;;;;;;;;;5122764;28;20040;-65
2023/05/09 06:57:21;;;;;;;247.23;186.23;;;;;;;;;;5104247;28;20077;-66
2023/05/09 06:59:47;;;;;;;203.38;187.52;;;;;;;;;;5124766;28;20066;-64
2023/05/09 07:02:14;;;;;;;244.98;227.18;;;;;;;;;;5122809;28;20044;-65
2023/05/09 07:04:41;;;;;;;305.90;278.52;;;;;;;;;;5125682;28;20039;-64
2023/05/09 07:07:08;;;;;;;276.90;255.35;;;;;;;;;;5101025;28;20039;-66
2023/05/09 07:09:35;;;;;;;247.43;227.55;;;;;;;;;;5122816;28;20456;-67
2023/05/09 07:12:01;;;;;;;273.17;251.98;;;;;;;;;;5117624;28;20439;-65
2023/05/09 07:14:28;;;;;;;257.50;238.00;;;;;;;;;;5119750;28;20550;-66
2023/05/09 07:16:54;;;;;;;246.57;227.95;;;;;;;;;;5114483;28;20035;-65
2023/05/09 07:19:40;;;;;;;239.75;220.05;;;;;;;;;;5119134;28;20498;-65
2023/05/09 07:22:06;;;;;;;224.70;208.38;;;;;;;;;;5083651;28;20116;-65
2023/05/09 07:24:33;;;;;;;238.25;220.05;;;;;;;;;;5122662;28;20054;-65
2023/05/09 07:27:01;;;;;;;235.27;217.77;;;;;;;;;;5121416;28;20101;-64
2023/05/09 07:29:28;;;;;;;214.45;198.57;;;;;;;;;;5100800;28;20043;-65
2023/05/09 07:31:54;;;;;;;216.10;195.65;;;;;;;;;;5125791;28;20039;-64
2023/05/09 07:34:22;;;;;;;201.25;185.43;;;;;;;;;;5104260;28;20089;-65
2023/05/09 07:36:49;;;;;;;207.73;189.40;;;;;;;;;;5123956;27;20047;-67
2023/05/09 07:39:15;;;;;;;195.20;178.10;;;;;;;;;;5124977;27;20047;-67
2023/05/09 07:41:42;;;;;;;204.25;185.20;;;;;;;;;;5107295;27;20066;-66
2023/05/09 07:44:09;;;;;;;185.30;170.00;;;;;;;;;;5124126;27;20039;-64
2023/05/09 07:46:40;;;;;;;169.00;154.57;;;;;;;;;;5125010;27;20098;-66
2023/05/09 07:49:07;;;;;;;180.27;150.95;;;;;;;;;;5125852;27;20387;-65
2023/05/09 07:51:34;;;;;;;156.45;144.30;;;;;;;;;;5125840;27;20054;-67
2023/05/09 07:54:01;;;;;;;156.05;142.68;;;;;;;;;;5107551;27;20047;-66
2023/05/09 07:56:27;;;;;;;170.35;159.38;;;;;;;;;;5127832;27;20086;-64
2023/05/09 07:58:54;;;;;;;249.25;231.85;;;;;;;;;;5121619;27;20054;-65
2023/05/09 08:01:21;;;;;;;215.40;199.50;;;;;;;;;;5122477;27;20051;-64
2023/05/09 08:03:47;;;;;;;214.88;198.85;;;;;;;;;;5107274;27;20051;-65
2023/05/09 08:06:14;;;;;;;232.75;213.75;;;;;;;;;;5106573;27;20516;-64
2023/05/09 08:08:41;;;;;;;202.00;187.05;;;;;;;;;;5123766;27;20036;-64
2023/05/09 08:11:07;;;;;;;162.02;150.48;;;;;;;;;;5123553;27;20043;-64
2023/05/09 08:13:34;;;;;;;159.27;148.10;;;;;;;;;;5124467;27;20040;-66
2023/05/09 08:16:01;;;;;;;146.88;134.65;;;;;;;;;;5107176;27;20089;-65
2023/05/09 08:18:28;;;;;;;139.38;128.27;;;;;;;;;;5106802;27;20039;-65
2023/05/09 08:20:55;;;;;;;138.35;126.22;;;;;;;;;;5090479;27;20179;-65
2023/05/09 08:23:21;;;;;;;119.65;110.82;;;;;;;;;;5102924;27;20074;-64
2023/05/09 08:25:51;;;;;;;116.93;107.60;;;;;;;;;;5122172;27;20038;-65
2023/05/09 08:28:17;;;;;;;111.18;100.65;;;;;;;;;;5105124;28;20043;-66
2023/05/09 08:30:44;;;;;;;104.50;93.05;;;;;;;;;;5107169;27;20070;-68
2023/05/09 08:33:11;;;;;;;105.22;93.97;;;;;;;;;;5105082;27;20523;-69
2023/05/09 08:35:37;;;;;;;85.88;79.18;;;;;;;;;;5123415;27;20052;-68
2023/05/09 08:38:04;;;;;;;84.13;75.22;;;;;;;;;;5121336;27;20392;-67
2023/05/09 08:40:34;;;;;;;93.78;75.72;;;;;;;;;;5123238;27;20122;-68
2023/05/09 08:43:02;;;;;;;75.07;66.78;;;;;;;;;;5125270;27;20046;-67
2023/05/09 08:45:29;;;;;;;81.03;64.30;;;;;;;;;;5106000;27;20481;-67
2023/05/09 08:47:55;;;;;;;86.43;57.08;;;;;;;;;;5107438;27;20050;-67
2023/05/09 08:50:22;;;;;;;70.50;58.25;;;;;;;;;;5126045;27;20071;-68
2023/05/09 08:52:50;;;;;;;58.72;51.85;;;;;;;;;;5124750;27;20036;-69
2023/05/09 08:55:17;;;;;;;61.13;55.08;;;;;;;;;;5123206;27;20481;-68
2023/05/09 08:57:43;;;;;;;74.88;50.63;;;;;;;;;;5124332;27;20031;-67
2023/05/09 09:00:12;;;;;;;84.53;51.90;;;;;;;;;;5122871;27;20067;-67
2023/05/09 09:02:39;;;;;;;59.63;45.22;;;;;;;;;;5087310;27;20075;-68
2023/05/09 09:05:06;;;;;;;51.70;40.30;;;;;;;;;;5122957;27;20484;-67
2023/05/09 09:07:45;;;;;;;42.72;38.00;;;;;;;;;;5124662;27;20043;-67
2023/05/09 09:10:12;;;;;;;66.25;44.72;;;;;;;;;;5121619;27;20493;-70
2023/05/09 09:12:39;;;;;;;96.18;49.47;;;;;;;;;;5124396;27;20032;-66
2023/05/09 09:15:09;;;;;;;71.38;42.25;;;;;;;;;;5106483;28;20047;-68
2023/05/09 09:17:39;;;;;;;75.35;42.90;;;;;;;;;;5126644;27;20122;-67
2023/05/09 09:20:08;;;;;;;61.85;39.65;;;;;;;;;;5121178;27;20046;-67
2023/05/09 09:22:35;;;;;;;54.78;42.70;;;;;;;;;;5102249;27;20036;-69
2023/05/09 09:25:02;;;;;;;51.28;40.42;;;;;;;;;;5105389;27;20405;-68
2023/05/09 09:27:30;;;;;;;58.72;38.05;;;;;;;;;;5105437;27;20035;-67
2023/05/09 09:30:07;;;;;;;46.13;34.50;;;;;;;;;;5122587;27;20068;-67
2023/05/09 09:32:33;;;;;;;69.05;44.22;;;;;;;;;;5121946;27;20051;-67
2023/05/09 09:35:05;;;;;;;58.13;37.15;;;;;;;;;;5104566;27;20039;-67
2023/05/09 09:37:34;;;;;;;68.90;36.22;;;;;;;;;;5124779;27;20043;-67
2023/05/09 09:40:01;;;;;;;70.32;42.63;;;;;;;;;;5123826;27;20066;-66
2023/05/09 09:42:39;;;;;;;53.63;37.00;;;;;;;;;;5122809;27;20043;-66
2023/05/09 09:45:16;;;;;;;59.67;40.80;;;;;;;;;;5085720;28;20413;-71
2023/05/09 09:47:44;;;;;;;51.13;44.47;;;;;;;;;;5104960;27;20457;-70
2023/05/09 09:50:14;;;;;;;53.20;37.58;;;;;;;;;;5120728;27;20031;-67
2023/05/09 09:52:51;;;;;;;60.33;35.30;;;;;;;;;;5103413;27;20160;-66
2023/05/09 09:55:18;;;;;;;64.60;39.10;;;;;;;;;;5120759;27;20046;-67
2023/05/09 09:57:46;;;;;;;63.65;38.03;;;;;;;;;;5102195;28;20677;-67
2023/05/09 10:00:14;;;;;;;82.80;43.55;;;;;;;;;;5119918;27;20054;-67
2023/05/09 10:02:45;;;;;;;45.92;36.58;;;;;;;;;;5099163;27;20047;-67
2023/05/09 10:05:17;;;;;;;50.35;35.45;;;;;;;;;;5124693;27;20036;-67
2023/05/09 10:07:44;;;;;;;39.95;27.98;;;;;;;;;;5081391;28;20406;-69
2023/05/09 10:10:10;;;;;;;35.92;32.78;;;;;;;;;;5104181;27;20110;-66
2023/05/09 10:12:38;;;;;;;58.17;34.25;;;;;;;;;;5117635;27;20047;-67
2023/05/09 10:15:07;;;;;;;70.82;31.83;;;;;;;;;;5094831;28;20036;-75
2023/05/09 10:17:34;;;;;;;61.85;38.05;;;;;;;;;;5096394;28;20470;-69
2023/05/09 10:20:03;;;;;;;50.17;29.50;;;;;;;;;;5123101;27;20049;-67
2023/05/09 10:22:31;;;;;;;42.38;28.25;;;;;;;;;;5120302;27;20047;-68
2023/05/09 10:24:57;;;;;;;32.20;27.55;;;;;;;;;;5121497;27;20119;-67
2023/05/09 10:27:25;;;;;;;77.78;31.73;;;;;;;;;;5121070;27;20062;-67
2023/05/09 10:30:06;;;;;;;59.00;32.65;;;;;;;;;;5122719;27;20039;-67
2023/05/09 10:32:38;;;;;;;71.05;30.30;;;;;;;;;;5121051;28;20130;-67
2023/05/09 10:35:05;;;;;;;46.00;26.23;;;;;;;;;;5119067;28;20123;-67
2023/05/09 10:37:32;;;;;;;103.43;32.15;;;;;;;;;;5116687;28;20649;-67
2023/05/09 10:40:00;;;;;;;43.17;24.67;;;;;;;;;;5089357;28;20043;-67
2023/05/09 10:42:27;;;;;;;60.45;28.88;;;;;;;;;;5100676;28;20130;-68
2023/05/09 10:44:55;;;;;;;69.38;29.95;;;;;;;;;;5120184;28;20139;-68
2023/05/09 10:47:22;;;;;;;68.90;24.15;;;;;;;;;;5119202;28;20493;-68
2023/05/09 10:49:48;;;;;;;34.95;23.35;;;;;;;;;;5121167;28;20035;-68
2023/05/09 10:52:15;;;;;;;67.10;29.13;;;;;;;;;;5120143;28;20046;-66
2023/05/09 10:54:42;;;;;;;69.85;27.00;;;;;;;;;;5121666;28;20039;-67
2023/05/09 10:57:08;;;;;;;40.35;23.88;;;;;;;;;;5119773;28;20532;-68
2023/05/09 10:59:42;;;;;;;43.78;23.85;;;;;;;;;;5101552;28;20092;-67
2023/05/09 11:02:12;;;;;;;35.13;25.25;;;;;;;;;;5105116;28;20078;-69
2023/05/09 11:04:39;;;;;;;68.05;27.35;;;;;;;;;;5118091;28;20036;-68
2023/05/09 11:07:21;;;;;;;37.58;23.58;;;;;;;;;;5100378;28;20043;-67
2023/05/09 11:10:06;;;;;;;73.20;29.05;;;;;;;;;;5120269;28;20465;-69
2023/05/09 11:12:33;;;;;;;68.38;27.77;;;;;;;;;;5120730;27;20057;-68
2023/05/09 11:15:03;;;;;;;41.08;25.70;;;;;;;;;;5107253;27;20047;-67
2023/05/09 11:17:31;;;;;;;47.55;21.67;;;;;;;;;;5104835;27;20039;-69
2023/05/09 11:19:59;;;;;;;47.13;21.77;;;;;;;;;;5126924;27;20481;-68
2023/05/09 11:22:31;;;;;;;45.33;21.75;;;;;;;;;;5122645;27;20063;-67
2023/05/09 11:24:59;;;;;;;70.27;24.40;;;;;;;;;;5106129;27;20162;-67
2023/05/09 11:27:27;;;;;;;57.20;23.20;;;;;;;;;;5106171;27;20799;-69
2023/05/09 11:29:53;;;;;;;45.38;20.92;;;;;;;;;;5110227;27;20409;-69
2023/05/09 11:32:21;;;;;;;46.13;24.20;;;;;;;;;;5124324;27;20118;-67
2023/05/09 11:34:48;;;;;;;37.03;22.05;;;;;;;;;;5107241;27;20402;-66
2023/05/09 11:37:15;;;;;;;58.05;24.42;;;;;;;;;;5122955;27;20138;-67
2023/05/09 11:39:58;;;;;;;47.13;23.83;;;;;;;;;;5124819;27;20047;-68
2023/05/09 11:42:26;;;;;;;53.78;27.23;;;;;;;;;;5107398;27;20040;-69
2023/05/09 11:44:53;;;;;;;89.20;20.50;;;;;;;;;;5104156;27;20051;-68
2023/05/09 11:47:20;;;;;;;71.47;22.13;;;;;;;;;;5123014;27;20044;-68
2023/05/09 11:49:50;;;;;;;61.58;21.90;;;;;;;;;;5109730;27;20481;-67
2023/05/09 11:52:21;;;;;;;50.03;19.65;;;;;;;;;;5108613;27;20071;-69
2023/05/09 11:54:48;;;;;;;51.60;18.90;;;;;;;;;;5120938;27;20035;-67
2023/05/09 11:57:17;;;;;;;75.30;20.95;;;;;;;;;;5125110;27;20404;-67
2023/05/09 11:59:44;;;;;;;83.57;22.92;;;;;;;;;;5129214;27;20042;-67
2023/05/09 12:02:11;;;;;;;103.80;21.30;;;;;;;;;;5122345;27;20057;-70
2023/05/09 12:04:38;;;;;;;68.15;14.35;;;;;;;;;;5101396;27;20048;-68
2023/05/09 12:07:05;;;;;;;78.72;18.27;;;;;;;;;;5104246;27;20036;-69
2023/05/09 12:09:32;;;;;;;100.40;19.02;;;;;;;;;;5101208;27;20050;-71
2023/05/09 12:12:07;;;;;;;92.07;21.08;;;;;;;;;;5103809;27;20047;-68
2023/05/09 12:14:34;;;;;;;68.65;23.00;;;;;;;;;;5122728;27;20047;-68
2023/05/09 12:17:00;;;;;;;120.93;36.03;;;;;;;;;;5103054;27;20042;-66
2023/05/09 12:19:27;;;;;;;73.43;25.40;;;;;;;;;;5123217;27;20092;-67
2023/05/09 12:21:58;;;;;;;90.65;25.52;;;;;;;;;;5120929;27;20434;-69
2023/05/09 12:24:25;;;;;;;156.50;29.75;;;;;;;;;;5104690;27;20060;-68
2023/05/09 12:26:53;;;;;;;77.22;21.42;;;;;;;;;;5125641;27;20058;-67
2023/05/09 12:29:20;;;;;;;93.38;22.17;;;;;;;;;;5104894;27;20047;-66
2023/05/09 12:31:47;;;;;;;126.78;27.17;;;;;;;;;;5121035;27;20118;-67
2023/05/09 12:34:14;;;;;;;53.95;19.73;;;;;;;;;;5121570;27;20042;-67
2023/05/09 12:36:49;;;;;;;82.07;21.88;;;;;;;;;;5121635;27;20535;-69
2023/05/09 12:39:21;;;;;;;120.30;23.67;;;;;;;;;;5102973;27;20058;-69
2023/05/09 12:41:48;;;;;;;81.05;21.50;;;;;;;;;;5105024;27;20484;-68
2023/05/09 12:44:28;;;;;;;94.53;23.25;;;;;;;;;;5118617;27;20052;-68
2023/05/09 12:46:56;;;;;;;83.63;20.73;;;;;;;;;;5105559;27;20388;-68
2023/05/09 12:49:22;;;;;;;61.85;21.70;;;;;;;;;;5121975;27;20043;-69
2023/05/09 12:51:50;;;;;;;112.78;24.10;;;;;;;;;;5103069;27;20134;-68
2023/05/09 12:54:21;;;;;;;88.85;21.10;;;;;;;;;;5103678;27;20408;-68
2023/05/09 12:56:50;;;;;;;85.93;19.27;;;;;;;;;;5102314;27;20135;-68
2023/05/09 12:59:21;;;;;;;96.50;19.88;;;;;;;;;;5105322;27;20401;-67
2023/05/09 13:01:52;;;;;;;66.00;17.23;;;;;;;;;;5102327;27;20073;-69
2023/05/09 13:04:19;;;;;;;141.88;28.42;;;;;;;;;;5096638;28;20503;-69
2023/05/09 13:06:47;;;;;;;106.03;21.77;;;;;;;;;;5120747;27;20046;-67
2023/05/09 13:09:13;;;;;;;99.07;21.83;;;;;;;;;;5119234;27;20051;-67
2023/05/09 13:11:40;;;;;;;124.90;21.42;;;;;;;;;;5118909;27;20130;-67
2023/05/09 13:14:07;;;;;;;40.90;15.43;;;;;;;;;;5119765;27;20035;-68
2023/05/09 13:16:33;;;;;;;65.68;17.20;;;;;;;;;;5103658;27;20040;-68
2023/05/09 13:19:00;;;;;;;102.32;20.55;;;;;;;;;;5123474;27;20046;-67
2023/05/09 13:21:27;;;;;;;103.40;21.02;;;;;;;;;;5121366;27;20039;-68
2023/05/09 13:23:53;;;;;;;109.05;23.42;;;;;;;;;;5122496;27;20400;-66
2023/05/09 13:26:20;;;;;;;88.13;21.27;;;;;;;;;;5119854;27;20568;-69
2023/05/09 13:28:47;;;;;;;106.68;21.48;;;;;;;;;;5118331;27;20048;-68
2023/05/09 13:31:13;;;;;;;73.28;17.38;;;;;;;;;;5119258;27;20042;-67
2023/05/09 13:33:40;;;;;;;67.93;17.05;;;;;;;;;;5119292;27;20438;-70
2023/05/09 13:36:07;;;;;;;78.78;18.27;;;;;;;;;;5120066;27;20039;-69
2023/05/09 13:38:37;;;;;;;70.75;15.98;;;;;;;;;;5100734;27;20408;-67
2023/05/09 13:41:04;;;;;;;74.95;15.23;;;;;;;;;;5122192;27;20108;-71
2023/05/09 13:43:30;;;;;;;76.70;16.48;;;;;;;;;;5100667;27;20138;-67
2023/05/09 13:45:57;;;;;;;83.80;17.55;;;;;;;;;;5102807;27;20079;-68
2023/05/09 13:48:23;;;;;;;123.85;25.70;;;;;;;;;;5121058;27;20046;-72
2023/05/09 13:50:50;;;;;;;107.57;18.83;;;;;;;;;;5117455;27;20052;-68
2023/05/09 13:53:16;;;;;;;66.85;17.90;;;;;;;;;;5120153;27;20115;-68
2023/05/09 13:55:44;;;;;;;65.60;14.82;;;;;;;;;;5118838;27;20493;-69
2023/05/09 13:58:11;;;;;;;115.05;19.77;;;;;;;;;;5102694;27;20081;-69
2023/05/09 14:00:37;;;;;;;38.85;14.77;;;;;;;;;;5114837;27;20031;-69
2023/05/09 14:03:04;;;;;;;66.63;14.57;;;;;;;;;;5120091;27;20051;-69
2023/05/09 14:05:30;;;;;;;81.15;17.10;;;;;;;;;;5117367;27;20039;-67
2023/05/09 14:07:57;;;;;;;101.78;16.55;;;;;;;;;;5116205;27;20040;-67